sensor_id;sensor_type;location;lat;lon;timestamp;temperature;humidity
23671;DHT22;12012;51.998;7.614;2023-04-16T00:01:27;8.50;99.90
23671;DHT22;12012;51.998;7.614;2023-04-16T00:03:53;8.50;99.90
23671;DHT22;12012;51.998;7.614;2023-04-16T00:06:19;8.50;99.90
23671;DHT22;12012;51.998;7.614;2023-04-16T00:08:44;8.40;99.90
23671;DHT22;12012;51.998;7.614;2023-04-16T00:11:10;8.50;99.90
23671;DHT22;12012;51.998;7.614;2023-04-16T00:13:36;8.40;99.90
23671;DHT22;12012;51.998;7.614;2023-04-16T00:16:01;8.50;99.90
23671;DHT22;12012;51.998;7.614;2023-04-16T00:18:27;8.40;99.90
23671;DHT22;12012;51.998;7.614;2023-04-16T00:20:53;8.50;99.90
23671;DHT22;12012;51.998;7.614;2023-04-16T00:23:19;8.50;99.90
23671;DHT22;12012;51.998;7.614;2023-04-16T00:25:45;8.50;99.90
23671;DHT22;12012;51.998;7.614;2023-04-16T00:28:10;8.50;99.90
23671;DHT22;12012;51.998;7.614;2023-04-16T00:30:36;8.50;99.90
23671;DHT22;12012;51.998;7.614;2023-04-16T00:33:02;8.50;99.90
23671;DHT22;12012;51.998;7.614;2023-04-16T00:35:29;8.50;99.90
23671;DHT22;12012;51.998;7.614;2023-04-16T00:37:54;8.50;99.90
23671;DHT22;12012;51.998;7.614;2023-04-16T00:40:20;8.50;99.90
23671;DHT22;12012;51.998;7.614;2023-04-16T00:42:46;8.50;99.90
23671;DHT22;12012;51.998;7.614;2023-04-16T00:45:11;8.50;99.90
23671;DHT22;12012;51.998;7.614;2023-04-16T00:47:37;8.50;99.90
23671;DHT22;12012;51.998;7.614;2023-04-16T00:50:03;8.50;99.90
23671;DHT22;12012;51.998;7.614;2023-04-16T00:52:31;8.50;99.90
23671;DHT22;12012;51.998;7.614;2023-04-16T00:54:57;8.50;99.90
23671;DHT22;12012;51.998;7.614;2023-04-16T00:57:23;8.50;99.90
23671;DHT22;12012;51.998;7.614;2023-04-16T00:59:49;8.50;99.90
23671;DHT22;12012;51.998;7.614;2023-04-16T01:02:15;8.50;99.90
23671;DHT22;12012;51.998;7.614;2023-04-16T01:04:41;8.50;99.90
23671;DHT22;12012;51.998;7.614;2023-04-16T01:07:06;8.50;99.90
23671;DHT22;12012;51.998;7.614;2023-04-16T01:09:32;8.50;99.90
23671;DHT22;12012;51.998;7.614;2023-04-16T01:11:57;8.50;99.90
23671;DHT22;12012;51.998;7.614;2023-04-16T01:14:23;8.50;99.90
23671;DHT22;12012;51.998;7.614;2023-04-16T01:16:49;8.50;99.90
23671;DHT22;12012;51.998;7.614;2023-04-16T01:19:14;8.50;99.90
23671;DHT22;12012;51.998;7.614;2023-04-16T01:21:40;8.50;99.90
23671;DHT22;12012;51.998;7.614;2023-04-16T01:24:05;8.50;99.90
23671;DHT22;12012;51.998;7.614;2023-04-16T01:26:31;8.60;99.90
23671;DHT22;12012;51.998;7.614;2023-04-16T01:28:57;8.60;99.90
23671;DHT22;12012;51.998;7.614;2023-04-16T01:31:22;8.60;99.90
23671;DHT22;12012;51.998;7.614;2023-04-16T01:33:48;8.60;99.90
23671;DHT22;12012;51.998;7.614;2023-04-16T01:36:14;8.60;99.90
23671;DHT22;12012;51.998;7.614;2023-04-16T01:38:39;8.60;99.90
23671;DHT22;12012;51.998;7.614;2023-04-16T01:41:05;8.60;99.90
23671;DHT22;12012;51.998;7.614;2023-04-16T01:43:30;8.60;99.90
23671;DHT22;12012;51.998;7.614;2023-04-16T01:46:19;8.60;99.90
23671;DHT22;12012;51.998;7.614;2023-04-16T01:48:45;8.60;99.90
23671;DHT22;12012;51.998;7.614;2023-04-16T01:51:11;8.60;99.90
23671;DHT22;12012;51.998;7.614;2023-04-16T01:53:37;8.60;99.90
23671;DHT22;12012;51.998;7.614;2023-04-16T01:56:03;8.60;99.90
23671;DHT22;12012;51.998;7.614;2023-04-16T01:58:29;8.70;99.90
23671;DHT22;12012;51.998;7.614;2023-04-16T02:00:55;8.60;99.90
23671;DHT22;12012;51.998;7.614;2023-04-16T02:03:21;8.60;99.90
23671;DHT22;12012;51.998;7.614;2023-04-16T02:05:49;8.60;99.90
23671;DHT22;12012;51.998;7.614;2023-04-16T02:08:15;8.60;99.90
23671;DHT22;12012;51.998;7.614;2023-04-16T02:10:41;8.60;99.90
23671;DHT22;12012;51.998;7.614;2023-04-16T02:13:07;8.70;99.90
23671;DHT22;12012;51.998;7.614;2023-04-16T02:15:32;8.70;99.90
23671;DHT22;12012;51.998;7.614;2023-04-16T02:17:58;8.70;99.90
23671;DHT22;12012;51.998;7.614;2023-04-16T02:20:23;8.70;99.90
23671;DHT22;12012;51.998;7.614;2023-04-16T02:22:49;8.70;99.90
23671;DHT22;12012;51.998;7.614;2023-04-16T02:25:14;8.70;99.90
23671;DHT22;12012;51.998;7.614;2023-04-16T02:27:40;8.70;99.90
23671;DHT22;12012;51.998;7.614;2023-04-16T02:30:06;8.70;99.90
23671;DHT22;12012;51.998;7.614;2023-04-16T02:32:32;8.70;99.90
23671;DHT22;12012;51.998;7.614;2023-04-16T02:34:57;8.70;99.90
23671;DHT22;12012;51.998;7.614;2023-04-16T02:37:23;8.70;99.90
23671;DHT22;12012;51.998;7.614;2023-04-16T02:39:50;8.70;99.90
23671;DHT22;12012;51.998;7.614;2023-04-16T02:42:15;8.70;99.90
23671;DHT22;12012;51.998;7.614;2023-04-16T02:44:41;8.70;99.90
23671;DHT22;12012;51.998;7.614;2023-04-16T02:47:07;8.70;99.90
23671;DHT22;12012;51.998;7.614;2023-04-16T02:49:32;8.70;99.90
23671;DHT22;12012;51.998;7.614;2023-04-16T02:51:58;8.70;99.90
23671;DHT22;12012;51.998;7.614;2023-04-16T02:54:23;8.70;99.90
23671;DHT22;12012;51.998;7.614;2023-04-16T02:56:49;8.70;99.90
23671;DHT22;12012;51.998;7.614;2023-04-16T02:59:14;8.70;99.90
23671;DHT22;12012;51.998;7.614;2023-04-16T03:01:40;8.70;99.90
23671;DHT22;12012;51.998;7.614;2023-04-16T03:04:05;8.70;99.90
23671;DHT22;12012;51.998;7.614;2023-04-16T03:06:31;8.70;99.90
23671;DHT22;12012;51.998;7.614;2023-04-16T03:08:56;8.70;99.90
23671;DHT22;12012;51.998;7.614;2023-04-16T03:11:22;8.70;99.90
23671;DHT22;12012;51.998;7.614;2023-04-16T03:13:48;8.70;99.90
23671;DHT22;12012;51.998;7.614;2023-04-16T03:16:13;8.70;99.90
23671;DHT22;12012;51.998;7.614;2023-04-16T03:18:39;8.70;99.90
23671;DHT22;12012;51.998;7.614;2023-04-16T03:21:05;8.70;99.90
23671;DHT22;12012;51.998;7.614;2023-04-16T03:23:31;8.70;99.90
23671;DHT22;12012;51.998;7.614;2023-04-16T03:25:56;8.70;99.90
23671;DHT22;12012;51.998;7.614;2023-04-16T03:28:22;8.70;99.90
23671;DHT22;12012;51.998;7.614;2023-04-16T03:30:52;8.70;99.90
23671;DHT22;12012;51.998;7.614;2023-04-16T03:33:18;8.80;99.90
23671;DHT22;12012;51.998;7.614;2023-04-16T03:35:44;8.80;99.90
23671;DHT22;12012;51.998;7.614;2023-04-16T03:38:10;8.80;99.90
23671;DHT22;12012;51.998;7.614;2023-04-16T03:40:36;8.80;99.90
23671;DHT22;12012;51.998;7.614;2023-04-16T03:43:01;8.80;99.90
23671;DHT22;12012;51.998;7.614;2023-04-16T03:45:27;8.80;99.90
23671;DHT22;12012;51.998;7.614;2023-04-16T03:47:53;8.70;99.90
23671;DHT22;12012;51.998;7.614;2023-04-16T03:50:18;8.80;99.90
23671;DHT22;12012;51.998;7.614;2023-04-16T03:52:44;8.70;99.90
23671;DHT22;12012;51.998;7.614;2023-04-16T03:55:11;8.70;99.90
23671;DHT22;12012;51.998;7.614;2023-04-16T03:57:37;8.70;99.90
23671;DHT22;12012;51.998;7.614;2023-04-16T04:00:03;8.70;99.90
23671;DHT22;12012;51.998;7.614;2023-04-16T04:02:28;8.80;99.90
23671;DHT22;12012;51.998;7.614;2023-04-16T04:04:54;8.70;99.90
23671;DHT22;12012;51.998;7.614;2023-04-16T04:07:20;8.70;99.90
23671;DHT22;12012;51.998;7.614;2023-04-16T04:09:45;8.70;99.90
23671;DHT22;12012;51.998;7.614;2023-04-16T04:12:11;8.70;99.90
23671;DHT22;12012;51.998;7.614;2023-04-16T04:14:37;8.70;99.90
23671;DHT22;12012;51.998;7.614;2023-04-16T04:17:05;8.70;99.90
23671;DHT22;12012;51.998;7.614;2023-04-16T04:19:31;8.70;99.90
23671;DHT22;12012;51.998;7.614;2023-04-16T04:21:57;8.70;99.90
23671;DHT22;12012;51.998;7.614;2023-04-16T04:24:22;8.70;99.90
23671;DHT22;12012;51.998;7.614;2023-04-16T04:26:48;8.70;99.90
23671;DHT22;12012;51.998;7.614;2023-04-16T04:29:13;8.70;99.90
23671;DHT22;12012;51.998;7.614;2023-04-16T04:31:39;8.80;99.90
23671;DHT22;12012;51.998;7.614;2023-04-16T04:34:05;8.70;99.90
23671;DHT22;12012;51.998;7.614;2023-04-16T04:36:30;8.70;99.90
23671;DHT22;12012;51.998;7.614;2023-04-16T04:38:56;8.70;99.90
23671;DHT22;12012;51.998;7.614;2023-04-16T04:41:22;8.70;99.90
23671;DHT22;12012;51.998;7.614;2023-04-16T04:43:47;8.80;99.90
23671;DHT22;12012;51.998;7.614;2023-04-16T04:46:13;8.70;99.90
23671;DHT22;12012;51.998;7.614;2023-04-16T04:48:39;8.70;99.90
23671;DHT22;12012;51.998;7.614;2023-04-16T04:51:04;8.70;99.90
23671;DHT22;12012;51.998;7.614;2023-04-16T04:53:30;8.70;99.90
23671;DHT22;12012;51.998;7.614;2023-04-16T04:55:55;8.70;99.90
23671;DHT22;12012;51.998;7.614;2023-04-16T04:58:21;8.70;99.90
23671;DHT22;12012;51.998;7.614;2023-04-16T05:00:47;8.70;99.90
23671;DHT22;12012;51.998;7.614;2023-04-16T05:03:18;8.70;99.90
23671;DHT22;12012;51.998;7.614;2023-04-16T05:05:45;8.70;99.90
23671;DHT22;12012;51.998;7.614;2023-04-16T05:08:10;8.70;99.90
23671;DHT22;12012;51.998;7.614;2023-04-16T05:10:36;8.60;99.90
23671;DHT22;12012;51.998;7.614;2023-04-16T05:13:01;8.70;99.90
23671;DHT22;12012;51.998;7.614;2023-04-16T05:15:27;8.60;99.90
23671;DHT22;12012;51.998;7.614;2023-04-16T05:17:53;8.60;99.90
23671;DHT22;12012;51.998;7.614;2023-04-16T05:20:21;8.70;99.90
23671;DHT22;12012;51.998;7.614;2023-04-16T05:22:47;8.70;99.90
23671;DHT22;12012;51.998;7.614;2023-04-16T05:25:13;8.70;99.90
23671;DHT22;12012;51.998;7.614;2023-04-16T05:27:38;8.70;99.90
23671;DHT22;12012;51.998;7.614;2023-04-16T05:30:05;8.70;99.90
23671;DHT22;12012;51.998;7.614;2023-04-16T05:32:31;8.70;99.90
23671;DHT22;12012;51.998;7.614;2023-04-16T05:34:56;8.70;99.90
23671;DHT22;12012;51.998;7.614;2023-04-16T05:37:22;8.60;99.90
23671;DHT22;12012;51.998;7.614;2023-04-16T05:39:47;8.60;99.90
23671;DHT22;12012;51.998;7.614;2023-04-16T05:42:13;8.60;99.90
23671;DHT22;12012;51.998;7.614;2023-04-16T05:44:39;8.70;99.90
23671;DHT22;12012;51.998;7.614;2023-04-16T05:47:05;8.70;99.90
23671;DHT22;12012;51.998;7.614;2023-04-16T05:49:34;8.70;99.90
23671;DHT22;12012;51.998;7.614;2023-04-16T05:52:00;8.60;99.90
23671;DHT22;12012;51.998;7.614;2023-04-16T05:54:26;8.60;99.90
23671;DHT22;12012;51.998;7.614;2023-04-16T05:56:51;8.60;99.90
23671;DHT22;12012;51.998;7.614;2023-04-16T05:59:17;8.60;99.90
23671;DHT22;12012;51.998;7.614;2023-04-16T06:01:42;8.60;99.90
23671;DHT22;12012;51.998;7.614;2023-04-16T06:04:08;8.60;99.90
23671;DHT22;12012;51.998;7.614;2023-04-16T06:06:33;8.60;99.90
23671;DHT22;12012;51.998;7.614;2023-04-16T06:09:01;8.60;99.90
23671;DHT22;12012;51.998;7.614;2023-04-16T06:11:29;8.70;99.90
23671;DHT22;12012;51.998;7.614;2023-04-16T06:13:55;8.70;99.90
23671;DHT22;12012;51.998;7.614;2023-04-16T06:16:20;8.60;99.90
23671;DHT22;12012;51.998;7.614;2023-04-16T06:18:46;8.70;99.90
23671;DHT22;12012;51.998;7.614;2023-04-16T06:21:11;8.70;99.90
23671;DHT22;12012;51.998;7.614;2023-04-16T06:23:37;8.70;99.90
23671;DHT22;12012;51.998;7.614;2023-04-16T06:26:03;8.80;99.90
23671;DHT22;12012;51.998;7.614;2023-04-16T06:28:29;8.80;99.90
23671;DHT22;12012;51.998;7.614;2023-04-16T06:30:54;8.90;99.90
23671;DHT22;12012;51.998;7.614;2023-04-16T06:33:20;8.90;99.90
23671;DHT22;12012;51.998;7.614;2023-04-16T06:35:46;8.90;99.90
23671;DHT22;12012;51.998;7.614;2023-04-16T06:38:11;9.00;99.90
23671;DHT22;12012;51.998;7.614;2023-04-16T06:40:37;9.00;99.90
23671;DHT22;12012;51.998;7.614;2023-04-16T06:43:02;9.00;99.90
23671;DHT22;12012;51.998;7.614;2023-04-16T06:45:28;9.00;99.90
23671;DHT22;12012;51.998;7.614;2023-04-16T06:47:54;9.10;99.90
23671;DHT22;12012;51.998;7.614;2023-04-16T06:50:19;9.20;99.90
23671;DHT22;12012;51.998;7.614;2023-04-16T06:52:46;9.20;99.90
23671;DHT22;12012;51.998;7.614;2023-04-16T06:55:12;9.20;99.90
23671;DHT22;12012;51.998;7.614;2023-04-16T06:57:37;9.30;99.90
23671;DHT22;12012;51.998;7.614;2023-04-16T07:00:05;9.30;99.90
23671;DHT22;12012;51.998;7.614;2023-04-16T07:02:31;9.30;99.90
23671;DHT22;12012;51.998;7.614;2023-04-16T07:04:56;9.40;99.90
23671;DHT22;12012;51.998;7.614;2023-04-16T07:07:22;9.40;99.90
23671;DHT22;12012;51.998;7.614;2023-04-16T07:09:47;9.50;99.90
23671;DHT22;12012;51.998;7.614;2023-04-16T07:12:13;9.50;99.90
23671;DHT22;12012;51.998;7.614;2023-04-16T07:14:39;9.50;99.90
23671;DHT22;12012;51.998;7.614;2023-04-16T07:17:04;9.60;99.90
23671;DHT22;12012;51.998;7.614;2023-04-16T07:19:30;9.60;99.90
23671;DHT22;12012;51.998;7.614;2023-04-16T07:21:58;9.70;99.90
23671;DHT22;12012;51.998;7.614;2023-04-16T07:24:23;9.70;99.90
23671;DHT22;12012;51.998;7.614;2023-04-16T07:26:49;9.80;99.90
23671;DHT22;12012;51.998;7.614;2023-04-16T07:29:15;9.80;99.90
23671;DHT22;12012;51.998;7.614;2023-04-16T07:31:40;9.90;99.90
23671;DHT22;12012;51.998;7.614;2023-04-16T07:34:06;9.90;98.90
23671;DHT22;12012;51.998;7.614;2023-04-16T07:36:31;10.00;97.60
23671;DHT22;12012;51.998;7.614;2023-04-16T07:38:57;10.00;96.80
23671;DHT22;12012;51.998;7.614;2023-04-16T07:41:23;10.10;94.00
23671;DHT22;12012;51.998;7.614;2023-04-16T07:43:48;10.10;94.70
23671;DHT22;12012;51.998;7.614;2023-04-16T07:46:14;10.10;94.50
23671;DHT22;12012;51.998;7.614;2023-04-16T07:48:41;10.20;93.30
23671;DHT22;12012;51.998;7.614;2023-04-16T07:51:07;10.20;95.30
23671;DHT22;12012;51.998;7.614;2023-04-16T07:53:32;10.30;95.80
23671;DHT22;12012;51.998;7.614;2023-04-16T07:55:58;10.50;95.70
23671;DHT22;12012;51.998;7.614;2023-04-16T07:58:23;10.60;94.20
23671;DHT22;12012;51.998;7.614;2023-04-16T08:00:49;10.70;89.20
23671;DHT22;12012;51.998;7.614;2023-04-16T08:03:15;10.90;92.30
23671;DHT22;12012;51.998;7.614;2023-04-16T08:05:41;11.00;92.20
23671;DHT22;12012;51.998;7.614;2023-04-16T08:08:06;11.10;91.60
23671;DHT22;12012;51.998;7.614;2023-04-16T08:10:32;11.20;90.10
23671;DHT22;12012;51.998;7.614;2023-04-16T08:13:00;11.20;91.80
23671;DHT22;12012;51.998;7.614;2023-04-16T08:15:26;11.30;91.10
23671;DHT22;12012;51.998;7.614;2023-04-16T08:17:51;11.40;90.80
23671;DHT22;12012;51.998;7.614;2023-04-16T08:20:17;11.40;91.10
23671;DHT22;12012;51.998;7.614;2023-04-16T08:22:44;11.50;87.10
23671;DHT22;12012;51.998;7.614;2023-04-16T08:25:10;11.60;85.90
23671;DHT22;12012;51.998;7.614;2023-04-16T08:27:36;11.60;76.00
23671;DHT22;12012;51.998;7.614;2023-04-16T08:30:02;11.60;66.20
23671;DHT22;12012;51.998;7.614;2023-04-16T08:32:27;11.60;63.50
23671;DHT22;12012;51.998;7.614;2023-04-16T08:34:53;11.60;73.90
23671;DHT22;12012;51.998;7.614;2023-04-16T08:37:19;11.70;76.20
23671;DHT22;12012;51.998;7.614;2023-04-16T08:39:44;11.90;68.60
23671;DHT22;12012;51.998;7.614;2023-04-16T08:42:17;12.10;61.90
23671;DHT22;12012;51.998;7.614;2023-04-16T08:44:47;12.30;56.70
23671;DHT22;12012;51.998;7.614;2023-04-16T08:47:14;12.60;57.40
23671;DHT22;12012;51.998;7.614;2023-04-16T08:49:44;12.90;57.20
23671;DHT22;12012;51.998;7.614;2023-04-16T08:52:17;13.10;57.70
23671;DHT22;12012;51.998;7.614;2023-04-16T08:54:55;13.30;43.00
23671;DHT22;12012;51.998;7.614;2023-04-16T08:57:23;13.50;40.40
23671;DHT22;12012;51.998;7.614;2023-04-16T08:59:53;13.60;37.40
23671;DHT22;12012;51.998;7.614;2023-04-16T09:02:19;13.80;25.50
23671;DHT22;12012;51.998;7.614;2023-04-16T09:04:45;13.90;27.80
23671;DHT22;12012;51.998;7.614;2023-04-16T09:07:12;14.00;25.60
23671;DHT22;12012;51.998;7.614;2023-04-16T09:09:38;14.40;24.60
23671;DHT22;12012;51.998;7.614;2023-04-16T09:12:05;14.70;16.30
23671;DHT22;12012;51.998;7.614;2023-04-16T09:14:31;14.90;1.00
23671;DHT22;12012;51.998;7.614;2023-04-16T09:16:57;14.80;1.00
23671;DHT22;12012;51.998;7.614;2023-04-16T09:19:25;14.80;1.00
23671;DHT22;12012;51.998;7.614;2023-04-16T09:21:51;14.70;1.00
23671;DHT22;12012;51.998;7.614;2023-04-16T09:24:17;14.80;1.00
23671;DHT22;12012;51.998;7.614;2023-04-16T09:26:43;14.90;1.00
23671;DHT22;12012;51.998;7.614;2023-04-16T09:29:08;14.90;1.00
23671;DHT22;12012;51.998;7.614;2023-04-16T09:31:34;14.90;1.00
23671;DHT22;12012;51.998;7.614;2023-04-16T09:34:01;15.00;1.00
23671;DHT22;12012;51.998;7.614;2023-04-16T09:36:27;15.10;1.00
23671;DHT22;12012;51.998;7.614;2023-04-16T09:38:53;15.10;1.00
23671;DHT22;12012;51.998;7.614;2023-04-16T09:41:27;15.20;1.00
23671;DHT22;12012;51.998;7.614;2023-04-16T09:44:00;15.30;99.90
23671;DHT22;12012;51.998;7.614;2023-04-16T09:46:39;15.60;99.90
23671;DHT22;12012;51.998;7.614;2023-04-16T09:49:15;15.80;99.90
23671;DHT22;12012;51.998;7.614;2023-04-16T09:51:46;16.00;99.90
23671;DHT22;12012;51.998;7.614;2023-04-16T09:54:13;16.20;99.90
23671;DHT22;12012;51.998;7.614;2023-04-16T09:56:44;16.40;1.00
23671;DHT22;12012;51.998;7.614;2023-04-16T09:59:20;16.50;10.70
23671;DHT22;12012;51.998;7.614;2023-04-16T10:01:46;16.70;1.00
23671;DHT22;12012;51.998;7.614;2023-04-16T10:04:13;16.90;1.00
23671;DHT22;12012;51.998;7.614;2023-04-16T10:06:39;17.00;1.00
23671;DHT22;12012;51.998;7.614;2023-04-16T10:09:08;17.10;99.90
23671;DHT22;12012;51.998;7.614;2023-04-16T10:11:35;17.20;99.90
23671;DHT22;12012;51.998;7.614;2023-04-16T10:14:01;17.30;99.90
23671;DHT22;12012;51.998;7.614;2023-04-16T10:16:27;17.50;99.90
23671;DHT22;12012;51.998;7.614;2023-04-16T10:18:53;17.70;99.90
23671;DHT22;12012;51.998;7.614;2023-04-16T10:21:19;17.80;99.90
23671;DHT22;12012;51.998;7.614;2023-04-16T10:23:45;17.90;99.90
23671;DHT22;12012;51.998;7.614;2023-04-16T10:26:11;18.00;99.90
23671;DHT22;12012;51.998;7.614;2023-04-16T10:28:38;18.00;99.90
23671;DHT22;12012;51.998;7.614;2023-04-16T10:31:06;18.00;99.90
23671;DHT22;12012;51.998;7.614;2023-04-16T10:33:39;18.10;99.90
23671;DHT22;12012;51.998;7.614;2023-04-16T10:36:15;18.20;99.90
23671;DHT22;12012;51.998;7.614;2023-04-16T10:38:46;18.40;99.90
23671;DHT22;12012;51.998;7.614;2023-04-16T10:41:12;18.50;99.90
23671;DHT22;12012;51.998;7.614;2023-04-16T10:43:40;18.40;99.90
23671;DHT22;12012;51.998;7.614;2023-04-16T10:46:34;18.30;99.90
23671;DHT22;12012;51.998;7.614;2023-04-16T10:49:15;18.00;99.90
23671;DHT22;12012;51.998;7.614;2023-04-16T10:51:42;17.80;99.90
23671;DHT22;12012;51.998;7.614;2023-04-16T10:56:44;17.50;99.90
23671;DHT22;12012;51.998;7.614;2023-04-16T10:59:10;17.50;99.90
23671;DHT22;12012;51.998;7.614;2023-04-16T11:01:41;17.70;99.90
23671;DHT22;12012;51.998;7.614;2023-04-16T11:04:37;18.00;99.90
23671;DHT22;12012;51.998;7.614;2023-04-16T11:07:14;18.20;99.90
23671;DHT22;12012;51.998;7.614;2023-04-16T11:12:19;18.00;99.90
23671;DHT22;12012;51.998;7.614;2023-04-16T11:14:53;17.80;99.90
23671;DHT22;12012;51.998;7.614;2023-04-16T11:17:19;17.60;99.90
23671;DHT22;12012;51.998;7.614;2023-04-16T11:19:45;17.30;99.90
23671;DHT22;12012;51.998;7.614;2023-04-16T11:22:14;17.10;99.90
23671;DHT22;12012;51.998;7.614;2023-04-16T11:24:46;16.90;99.90
23671;DHT22;12012;51.998;7.614;2023-04-16T11:27:14;16.80;99.90
23671;DHT22;12012;51.998;7.614;2023-04-16T11:29:40;16.80;99.90
23671;DHT22;12012;51.998;7.614;2023-04-16T11:32:06;16.90;99.90
23671;DHT22;12012;51.998;7.614;2023-04-16T11:34:32;17.30;99.90
23671;DHT22;12012;51.998;7.614;2023-04-16T11:36:58;17.50;99.90
23671;DHT22;12012;51.998;7.614;2023-04-16T11:39:23;17.50;99.90
23671;DHT22;12012;51.998;7.614;2023-04-16T11:41:50;17.40;99.90
23671;DHT22;12012;51.998;7.614;2023-04-16T11:44:24;17.20;99.90
23671;DHT22;12012;51.998;7.614;2023-04-16T11:46:52;17.00;99.90
23671;DHT22;12012;51.998;7.614;2023-04-16T11:49:28;16.90;99.90
23671;DHT22;12012;51.998;7.614;2023-04-16T11:51:54;16.80;99.90
23671;DHT22;12012;51.998;7.614;2023-04-16T11:54:21;16.50;99.90
23671;DHT22;12012;51.998;7.614;2023-04-16T11:56:48;16.40;99.90
23671;DHT22;12012;51.998;7.614;2023-04-16T11:59:16;16.10;99.90
23671;DHT22;12012;51.998;7.614;2023-04-16T12:01:46;15.90;99.90
23671;DHT22;12012;51.998;7.614;2023-04-16T12:04:14;15.70;99.90
23671;DHT22;12012;51.998;7.614;2023-04-16T12:07:02;15.50;99.90
23671;DHT22;12012;51.998;7.614;2023-04-16T12:09:26;15.50;99.90
23671;DHT22;12012;51.998;7.614;2023-04-16T12:11:52;15.50;99.90
23671;DHT22;12012;51.998;7.614;2023-04-16T12:14:17;15.50;99.90
23671;DHT22;12012;51.998;7.614;2023-04-16T12:16:43;15.50;99.90
23671;DHT22;12012;51.998;7.614;2023-04-16T12:19:10;15.50;99.90
23671;DHT22;12012;51.998;7.614;2023-04-16T12:21:47;15.40;99.90
23671;DHT22;12012;51.998;7.614;2023-04-16T12:24:14;15.40;99.90
23671;DHT22;12012;51.998;7.614;2023-04-16T12:26:43;15.30;99.90
23671;DHT22;12012;51.998;7.614;2023-04-16T12:29:20;15.30;99.90
23671;DHT22;12012;51.998;7.614;2023-04-16T12:31:47;15.20;99.90
23671;DHT22;12012;51.998;7.614;2023-04-16T12:34:13;15.20;99.90
23671;DHT22;12012;51.998;7.614;2023-04-16T12:36:41;15.10;99.90
23671;DHT22;12012;51.998;7.614;2023-04-16T12:39:08;15.10;99.90
23671;DHT22;12012;51.998;7.614;2023-04-16T12:41:39;15.00;99.90
23671;DHT22;12012;51.998;7.614;2023-04-16T12:44:06;14.90;99.90
23671;DHT22;12012;51.998;7.614;2023-04-16T12:46:40;14.90;99.90
23671;DHT22;12012;51.998;7.614;2023-04-16T12:49:07;14.90;99.90
23671;DHT22;12012;51.998;7.614;2023-04-16T12:51:33;15.00;99.90
23671;DHT22;12012;51.998;7.614;2023-04-16T12:54:00;15.10;99.90
23671;DHT22;12012;51.998;7.614;2023-04-16T12:56:26;15.30;99.90
23671;DHT22;12012;51.998;7.614;2023-04-16T12:58:52;15.40;99.90
23671;DHT22;12012;51.998;7.614;2023-04-16T13:01:18;15.60;99.90
23671;DHT22;12012;51.998;7.614;2023-04-16T13:03:44;15.70;99.90
23671;DHT22;12012;51.998;7.614;2023-04-16T13:06:10;15.70;99.90
23671;DHT22;12012;51.998;7.614;2023-04-16T13:08:35;15.60;99.90
23671;DHT22;12012;51.998;7.614;2023-04-16T13:11:02;15.60;99.90
23671;DHT22;12012;51.998;7.614;2023-04-16T13:13:28;15.50;99.90
23671;DHT22;12012;51.998;7.614;2023-04-16T13:15:53;15.50;99.90
23671;DHT22;12012;51.998;7.614;2023-04-16T13:18:19;15.40;99.90
23671;DHT22;12012;51.998;7.614;2023-04-16T13:20:44;15.40;99.90
23671;DHT22;12012;51.998;7.614;2023-04-16T13:23:10;15.40;99.90
23671;DHT22;12012;51.998;7.614;2023-04-16T13:25:36;15.30;99.90
23671;DHT22;12012;51.998;7.614;2023-04-16T13:28:01;15.20;99.90
23671;DHT22;12012;51.998;7.614;2023-04-16T13:30:27;15.20;99.90
23671;DHT22;12012;51.998;7.614;2023-04-16T13:32:54;15.10;99.90
23671;DHT22;12012;51.998;7.614;2023-04-16T13:35:20;15.10;99.90
23671;DHT22;12012;51.998;7.614;2023-04-16T13:37:46;15.10;99.90
23671;DHT22;12012;51.998;7.614;2023-04-16T13:40:11;15.10;99.90
23671;DHT22;12012;51.998;7.614;2023-04-16T13:42:37;15.00;99.90
23671;DHT22;12012;51.998;7.614;2023-04-16T13:45:02;15.00;99.90
23671;DHT22;12012;51.998;7.614;2023-04-16T13:47:28;15.10;99.90
23671;DHT22;12012;51.998;7.614;2023-04-16T13:49:54;15.10;99.90
23671;DHT22;12012;51.998;7.614;2023-04-16T13:52:20;15.00;99.90
23671;DHT22;12012;51.998;7.614;2023-04-16T13:54:45;15.00;99.90
23671;DHT22;12012;51.998;7.614;2023-04-16T13:57:11;15.00;99.90
23671;DHT22;12012;51.998;7.614;2023-04-16T13:59:37;15.00;99.90
23671;DHT22;12012;51.998;7.614;2023-04-16T14:02:02;15.00;99.90
23671;DHT22;12012;51.998;7.614;2023-04-16T14:04:29;15.00;99.90
23671;DHT22;12012;51.998;7.614;2023-04-16T14:06:55;15.10;99.90
23671;DHT22;12012;51.998;7.614;2023-04-16T14:09:21;15.10;99.90
23671;DHT22;12012;51.998;7.614;2023-04-16T14:11:47;15.10;99.90
23671;DHT22;12012;51.998;7.614;2023-04-16T14:14:13;15.10;99.90
23671;DHT22;12012;51.998;7.614;2023-04-16T14:16:38;15.10;99.90
23671;DHT22;12012;51.998;7.614;2023-04-16T14:19:04;15.10;99.90
23671;DHT22;12012;51.998;7.614;2023-04-16T14:21:29;15.20;99.90
23671;DHT22;12012;51.998;7.614;2023-04-16T14:23:55;15.30;99.90
23671;DHT22;12012;51.998;7.614;2023-04-16T14:26:21;15.40;99.90
23671;DHT22;12012;51.998;7.614;2023-04-16T14:28:47;15.50;99.90
23671;DHT22;12012;51.998;7.614;2023-04-16T14:31:12;15.50;99.90
23671;DHT22;12012;51.998;7.614;2023-04-16T14:33:38;15.50;99.90
23671;DHT22;12012;51.998;7.614;2023-04-16T14:36:04;15.50;99.90
23671;DHT22;12012;51.998;7.614;2023-04-16T14:38:30;15.50;99.90
23671;DHT22;12012;51.998;7.614;2023-04-16T14:40:56;15.40;99.90
23671;DHT22;12012;51.998;7.614;2023-04-16T14:43:21;15.50;99.90
23671;DHT22;12012;51.998;7.614;2023-04-16T14:45:47;15.40;99.90
23671;DHT22;12012;51.998;7.614;2023-04-16T14:48:12;15.40;99.90
23671;DHT22;12012;51.998;7.614;2023-04-16T14:50:38;15.40;99.90
23671;DHT22;12012;51.998;7.614;2023-04-16T14:53:08;15.50;99.90
23671;DHT22;12012;51.998;7.614;2023-04-16T14:55:34;15.40;99.90
23671;DHT22;12012;51.998;7.614;2023-04-16T14:57:59;15.40;99.90
23671;DHT22;12012;51.998;7.614;2023-04-16T15:00:25;15.40;99.90
23671;DHT22;12012;51.998;7.614;2023-04-16T15:02:52;15.40;99.90
23671;DHT22;12012;51.998;7.614;2023-04-16T15:05:18;15.50;99.90
23671;DHT22;12012;51.998;7.614;2023-04-16T15:07:43;15.50;99.90
23671;DHT22;12012;51.998;7.614;2023-04-16T15:10:09;15.50;99.90
23671;DHT22;12012;51.998;7.614;2023-04-16T15:12:36;15.60;99.90
23671;DHT22;12012;51.998;7.614;2023-04-16T15:15:02;15.50;99.90
23671;DHT22;12012;51.998;7.614;2023-04-16T15:17:28;15.60;99.90
23671;DHT22;12012;51.998;7.614;2023-04-16T15:19:54;15.70;99.90
23671;DHT22;12012;51.998;7.614;2023-04-16T15:22:19;15.80;99.90
23671;DHT22;12012;51.998;7.614;2023-04-16T15:24:45;16.00;99.90
23671;DHT22;12012;51.998;7.614;2023-04-16T15:27:10;16.10;99.90
23671;DHT22;12012;51.998;7.614;2023-04-16T15:29:38;16.30;99.90
23671;DHT22;12012;51.998;7.614;2023-04-16T15:32:03;16.40;99.90
23671;DHT22;12012;51.998;7.614;2023-04-16T15:34:29;16.40;99.90
23671;DHT22;12012;51.998;7.614;2023-04-16T15:36:54;16.50;99.90
23671;DHT22;12012;51.998;7.614;2023-04-16T15:39:20;16.50;99.90
23671;DHT22;12012;51.998;7.614;2023-04-16T15:41:46;16.50;99.90